sensor_id;sensor_type;location;lat;lon;timestamp;P1;durP1;ratioP1;P2;durP2;ratioP2
14165;SDS011;7162;52.422;13.754;2023-04-08T00:01:37;29.80;;;9.00;;
14165;SDS011;7162;52.422;13.754;2023-04-08T00:04:04;27.63;;;8.57;;
14165;SDS011;7162;52.422;13.754;2023-04-08T00:06:34;17.57;;;7.17;;
14165;SDS011;7162;52.422;13.754;2023-04-08T00:09:03;25.83;;;8.10;;
14165;SDS011;7162;52.422;13.754;2023-04-08T00:11:30;18.13;;;7.00;;
14165;SDS011;7162;52.422;13.754;2023-04-08T00:13:58;18.43;;;7.73;;
14165;SDS011;7162;52.422;13.754;2023-04-08T00:16:25;24.77;;;7.87;;
14165;SDS011;7162;52.422;13.754;2023-04-08T00:18:52;17.70;;;7.07;;
14165;SDS011;7162;52.422;13.754;2023-04-08T00:21:19;16.20;;;7.57;;
14165;SDS011;7162;52.422;13.754;2023-04-08T00:23:48;17.73;;;6.50;;
14165;SDS011;7162;52.422;13.754;2023-04-08T00:26:16;21.27;;;7.27;;
14165;SDS011;7162;52.422;13.754;2023-04-08T00:28:43;19.50;;;6.97;;
14165;SDS011;7162;52.422;13.754;2023-04-08T00:31:12;18.03;;;7.40;;
14165;SDS011;7162;52.422;13.754;2023-04-08T00:33:39;21.40;;;8.20;;
14165;SDS011;7162;52.422;13.754;2023-04-08T00:36:07;16.43;;;7.13;;
14165;SDS011;7162;52.422;13.754;2023-04-08T00:38:34;23.47;;;7.60;;
14165;SDS011;7162;52.422;13.754;2023-04-08T00:41:02;18.23;;;7.73;;
14165;SDS011;7162;52.422;13.754;2023-04-08T00:43:29;18.93;;;7.37;;
14165;SDS011;7162;52.422;13.754;2023-04-08T00:45:56;20.60;;;7.50;;
14165;SDS011;7162;52.422;13.754;2023-04-08T00:48:24;19.20;;;7.80;;
14165;SDS011;7162;52.422;13.754;2023-04-08T00:50:51;22.73;;;9.17;;
14165;SDS011;7162;52.422;13.754;2023-04-08T00:53:21;21.87;;;8.10;;
14165;SDS011;7162;52.422;13.754;2023-04-08T00:55:48;17.13;;;8.13;;
14165;SDS011;7162;52.422;13.754;2023-04-08T00:58:16;22.80;;;9.33;;
14165;SDS011;7162;52.422;13.754;2023-04-08T01:00:45;21.10;;;8.70;;
14165;SDS011;7162;52.422;13.754;2023-04-08T01:03:17;21.97;;;8.00;;
14165;SDS011;7162;52.422;13.754;2023-04-08T01:05:50;24.00;;;9.60;;
14165;SDS011;7162;52.422;13.754;2023-04-08T01:08:19;15.47;;;7.90;;
14165;SDS011;7162;52.422;13.754;2023-04-08T01:10:47;22.27;;;8.43;;
14165;SDS011;7162;52.422;13.754;2023-04-08T01:13:18;20.27;;;9.00;;
14165;SDS011;7162;52.422;13.754;2023-04-08T01:15:48;22.63;;;8.00;;
14165;SDS011;7162;52.422;13.754;2023-04-08T01:18:16;18.63;;;8.43;;
14165;SDS011;7162;52.422;13.754;2023-04-08T01:20:43;18.40;;;8.23;;
14165;SDS011;7162;52.422;13.754;2023-04-08T01:23:12;18.53;;;7.90;;
14165;SDS011;7162;52.422;13.754;2023-04-08T01:25:45;20.53;;;8.10;;
14165;SDS011;7162;52.422;13.754;2023-04-08T01:28:14;24.00;;;9.07;;
14165;SDS011;7162;52.422;13.754;2023-04-08T01:30:42;24.43;;;10.07;;
14165;SDS011;7162;52.422;13.754;2023-04-08T01:33:09;23.93;;;8.50;;
14165;SDS011;7162;52.422;13.754;2023-04-08T01:35:37;26.90;;;9.30;;
14165;SDS011;7162;52.422;13.754;2023-04-08T01:38:05;25.20;;;9.37;;
14165;SDS011;7162;52.422;13.754;2023-04-08T01:40:33;22.93;;;8.80;;
14165;SDS011;7162;52.422;13.754;2023-04-08T01:43:02;27.50;;;9.80;;
14165;SDS011;7162;52.422;13.754;2023-04-08T01:45:32;28.13;;;10.30;;
14165;SDS011;7162;52.422;13.754;2023-04-08T01:47:59;26.80;;;9.37;;
14165;SDS011;7162;52.422;13.754;2023-04-08T01:50:27;30.97;;;11.67;;
14165;SDS011;7162;52.422;13.754;2023-04-08T01:52:55;30.90;;;10.67;;
14165;SDS011;7162;52.422;13.754;2023-04-08T01:55:24;33.03;;;10.40;;
14165;SDS011;7162;52.422;13.754;2023-04-08T01:57:52;32.00;;;11.10;;
14165;SDS011;7162;52.422;13.754;2023-04-08T02:00:24;30.97;;;10.77;;
14165;SDS011;7162;52.422;13.754;2023-04-08T02:02:52;30.10;;;10.70;;
14165;SDS011;7162;52.422;13.754;2023-04-08T02:05:19;28.27;;;11.47;;
14165;SDS011;7162;52.422;13.754;2023-04-08T02:07:46;39.00;;;11.90;;
14165;SDS011;7162;52.422;13.754;2023-04-08T02:10:13;30.53;;;10.97;;
14165;SDS011;7162;52.422;13.754;2023-04-08T02:12:40;34.53;;;11.60;;
14165;SDS011;7162;52.422;13.754;2023-04-08T02:15:08;41.20;;;12.73;;
14165;SDS011;7162;52.422;13.754;2023-04-08T02:17:38;36.10;;;12.80;;
14165;SDS011;7162;52.422;13.754;2023-04-08T02:20:09;34.73;;;11.87;;
14165;SDS011;7162;52.422;13.754;2023-04-08T02:22:37;33.73;;;11.13;;
14165;SDS011;7162;52.422;13.754;2023-04-08T02:25:07;34.70;;;13.13;;
14165;SDS011;7162;52.422;13.754;2023-04-08T02:27:34;33.93;;;12.87;;
14165;SDS011;7162;52.422;13.754;2023-04-08T02:30:02;35.23;;;12.13;;
14165;SDS011;7162;52.422;13.754;2023-04-08T02:32:30;39.63;;;14.27;;
14165;SDS011;7162;52.422;13.754;2023-04-08T02:34:59;49.93;;;14.43;;
14165;SDS011;7162;52.422;13.754;2023-04-08T02:37:27;36.80;;;12.47;;
14165;SDS011;7162;52.422;13.754;2023-04-08T02:39:54;36.20;;;14.20;;
14165;SDS011;7162;52.422;13.754;2023-04-08T02:42:21;47.87;;;14.03;;
14165;SDS011;7162;52.422;13.754;2023-04-08T02:44:49;51.33;;;12.67;;
14165;SDS011;7162;52.422;13.754;2023-04-08T02:47:16;34.53;;;13.07;;
14165;SDS011;7162;52.422;13.754;2023-04-08T02:49:43;42.53;;;14.43;;
14165;SDS011;7162;52.422;13.754;2023-04-08T02:52:11;48.57;;;14.50;;
14165;SDS011;7162;52.422;13.754;2023-04-08T02:54:38;42.70;;;14.90;;
14165;SDS011;7162;52.422;13.754;2023-04-08T02:57:05;39.83;;;13.63;;
14165;SDS011;7162;52.422;13.754;2023-04-08T02:59:32;39.23;;;14.33;;
14165;SDS011;7162;52.422;13.754;2023-04-08T03:02:01;41.93;;;13.87;;
14165;SDS011;7162;52.422;13.754;2023-04-08T03:04:29;44.97;;;13.43;;
14165;SDS011;7162;52.422;13.754;2023-04-08T03:06:56;45.33;;;15.73;;
14165;SDS011;7162;52.422;13.754;2023-04-08T03:09:24;34.10;;;14.10;;
14165;SDS011;7162;52.422;13.754;2023-04-08T03:11:51;36.70;;;13.60;;
14165;SDS011;7162;52.422;13.754;2023-04-08T03:14:19;38.70;;;13.67;;
14165;SDS011;7162;52.422;13.754;2023-04-08T03:16:46;42.43;;;14.70;;
14165;SDS011;7162;52.422;13.754;2023-04-08T03:19:13;41.37;;;15.90;;
14165;SDS011;7162;52.422;13.754;2023-04-08T03:21:45;40.43;;;13.90;;
14165;SDS011;7162;52.422;13.754;2023-04-08T03:24:12;41.10;;;15.80;;
14165;SDS011;7162;52.422;13.754;2023-04-08T03:26:41;46.30;;;15.07;;
14165;SDS011;7162;52.422;13.754;2023-04-08T03:29:08;50.53;;;14.43;;
14165;SDS011;7162;52.422;13.754;2023-04-08T03:31:35;48.07;;;16.40;;
14165;SDS011;7162;52.422;13.754;2023-04-08T03:34:02;48.13;;;15.83;;
14165;SDS011;7162;52.422;13.754;2023-04-08T03:36:29;52.77;;;15.47;;
14165;SDS011;7162;52.422;13.754;2023-04-08T03:38:56;41.27;;;14.90;;
14165;SDS011;7162;52.422;13.754;2023-04-08T03:41:23;47.47;;;14.27;;
14165;SDS011;7162;52.422;13.754;2023-04-08T03:43:51;38.83;;;14.23;;
14165;SDS011;7162;52.422;13.754;2023-04-08T03:46:18;48.93;;;14.70;;
14165;SDS011;7162;52.422;13.754;2023-04-08T03:48:46;66.90;;;15.90;;
14165;SDS011;7162;52.422;13.754;2023-04-08T03:51:13;35.50;;;12.77;;
14165;SDS011;7162;52.422;13.754;2023-04-08T03:53:43;38.40;;;13.00;;
14165;SDS011;7162;52.422;13.754;2023-04-08T03:56:12;41.87;;;13.20;;
14165;SDS011;7162;52.422;13.754;2023-04-08T03:58:39;43.50;;;13.60;;
14165;SDS011;7162;52.422;13.754;2023-04-08T04:01:07;33.23;;;11.97;;
14165;SDS011;7162;52.422;13.754;2023-04-08T04:03:34;36.53;;;14.43;;
14165;SDS011;7162;52.422;13.754;2023-04-08T04:06:01;42.03;;;15.40;;
14165;SDS011;7162;52.422;13.754;2023-04-08T04:08:28;35.60;;;12.40;;
14165;SDS011;7162;52.422;13.754;2023-04-08T04:10:55;38.93;;;12.90;;
14165;SDS011;7162;52.422;13.754;2023-04-08T04:13:24;34.80;;;12.57;;
14165;SDS011;7162;52.422;13.754;2023-04-08T04:15:51;37.53;;;12.40;;
14165;SDS011;7162;52.422;13.754;2023-04-08T04:18:19;37.57;;;13.90;;
14165;SDS011;7162;52.422;13.754;2023-04-08T04:20:46;40.53;;;13.67;;
14165;SDS011;7162;52.422;13.754;2023-04-08T04:23:13;36.33;;;13.90;;
14165;SDS011;7162;52.422;13.754;2023-04-08T04:25:40;35.03;;;12.30;;
14165;SDS011;7162;52.422;13.754;2023-04-08T04:28:08;36.60;;;12.27;;
14165;SDS011;7162;52.422;13.754;2023-04-08T04:30:35;34.37;;;13.30;;
14165;SDS011;7162;52.422;13.754;2023-04-08T04:33:02;32.50;;;11.90;;
14165;SDS011;7162;52.422;13.754;2023-04-08T04:35:31;39.43;;;14.03;;
14165;SDS011;7162;52.422;13.754;2023-04-08T04:37:58;39.60;;;13.40;;
14165;SDS011;7162;52.422;13.754;2023-04-08T04:40:25;32.50;;;11.90;;
14165;SDS011;7162;52.422;13.754;2023-04-08T04:42:52;40.30;;;14.73;;
14165;SDS011;7162;52.422;13.754;2023-04-08T04:45:19;38.97;;;12.53;;
14165;SDS011;7162;52.422;13.754;2023-04-08T04:47:48;36.13;;;12.57;;
14165;SDS011;7162;52.422;13.754;2023-04-08T04:50:15;37.17;;;13.63;;
14165;SDS011;7162;52.422;13.754;2023-04-08T04:52:44;38.63;;;13.30;;
14165;SDS011;7162;52.422;13.754;2023-04-08T04:55:11;35.63;;;13.50;;
14165;SDS011;7162;52.422;13.754;2023-04-08T04:57:39;30.97;;;12.50;;
14165;SDS011;7162;52.422;13.754;2023-04-08T05:00:08;34.90;;;12.70;;
14165;SDS011;7162;52.422;13.754;2023-04-08T05:02:36;39.90;;;16.93;;
14165;SDS011;7162;52.422;13.754;2023-04-08T05:05:03;41.13;;;13.33;;
14165;SDS011;7162;52.422;13.754;2023-04-08T05:07:30;33.63;;;11.43;;
14165;SDS011;7162;52.422;13.754;2023-04-08T05:09:58;31.57;;;12.63;;
14165;SDS011;7162;52.422;13.754;2023-04-08T05:12:26;32.10;;;11.80;;
14165;SDS011;7162;52.422;13.754;2023-04-08T05:14:53;30.53;;;12.37;;
14165;SDS011;7162;52.422;13.754;2023-04-08T05:17:20;30.03;;;11.80;;
14165;SDS011;7162;52.422;13.754;2023-04-08T05:19:47;35.00;;;13.33;;
14165;SDS011;7162;52.422;13.754;2023-04-08T05:22:14;43.83;;;13.60;;
14165;SDS011;7162;52.422;13.754;2023-04-08T05:24:41;31.57;;;11.40;;
14165;SDS011;7162;52.422;13.754;2023-04-08T05:27:09;40.40;;;12.50;;
14165;SDS011;7162;52.422;13.754;2023-04-08T05:32:13;34.87;;;12.47;;
14165;SDS011;7162;52.422;13.754;2023-04-08T05:35:32;36.27;;;11.87;;
14165;SDS011;7162;52.422;13.754;2023-04-08T05:41:17;32.90;;;11.43;;
14165;SDS011;7162;52.422;13.754;2023-04-08T06:08:59;28.30;;;12.10;;
14165;SDS011;7162;52.422;13.754;2023-04-08T06:12:14;42.93;;;12.53;;
14165;SDS011;7162;52.422;13.754;2023-04-08T06:15:21;30.13;;;12.10;;
14165;SDS011;7162;52.422;13.754;2023-04-08T06:18:08;27.70;;;10.70;;
14165;SDS011;7162;52.422;13.754;2023-04-08T06:20:57;28.90;;;11.33;;
14165;SDS011;7162;52.422;13.754;2023-04-08T06:23:40;33.57;;;12.20;;
14165;SDS011;7162;52.422;13.754;2023-04-08T06:32:20;29.47;;;11.77;;
14165;SDS011;7162;52.422;13.754;2023-04-08T06:43:32;25.10;;;11.43;;
14165;SDS011;7162;52.422;13.754;2023-04-08T06:46:21;31.00;;;12.80;;
14165;SDS011;7162;52.422;13.754;2023-04-08T07:01:09;27.33;;;11.53;;
14165;SDS011;7162;52.422;13.754;2023-04-08T07:04:01;34.10;;;11.47;;
14165;SDS011;7162;52.422;13.754;2023-04-08T07:10:12;32.63;;;12.83;;
14165;SDS011;7162;52.422;13.754;2023-04-08T07:35:26;27.13;;;11.00;;
14165;SDS011;7162;52.422;13.754;2023-04-08T07:38:07;30.30;;;11.70;;
14165;SDS011;7162;52.422;13.754;2023-04-08T07:40:58;36.50;;;11.57;;
14165;SDS011;7162;52.422;13.754;2023-04-08T07:43:36;26.13;;;11.37;;
14165;SDS011;7162;52.422;13.754;2023-04-08T07:46:05;22.80;;;9.73;;
14165;SDS011;7162;52.422;13.754;2023-04-08T07:48:37;24.87;;;11.20;;
14165;SDS011;7162;52.422;13.754;2023-04-08T07:51:07;35.03;;;12.07;;
14165;SDS011;7162;52.422;13.754;2023-04-08T07:53:41;36.43;;;12.70;;
14165;SDS011;7162;52.422;13.754;2023-04-08T07:56:14;23.60;;;10.03;;
14165;SDS011;7162;52.422;13.754;2023-04-08T07:58:44;31.60;;;12.10;;
14165;SDS011;7162;52.422;13.754;2023-04-08T08:01:16;27.80;;;11.93;;
14165;SDS011;7162;52.422;13.754;2023-04-08T08:03:44;31.30;;;11.33;;
14165;SDS011;7162;52.422;13.754;2023-04-08T08:06:13;27.87;;;11.47;;
14165;SDS011;7162;52.422;13.754;2023-04-08T08:08:41;34.77;;;12.60;;
14165;SDS011;7162;52.422;13.754;2023-04-08T08:11:08;28.37;;;11.43;;
14165;SDS011;7162;52.422;13.754;2023-04-08T08:13:35;26.90;;;11.73;;
14165;SDS011;7162;52.422;13.754;2023-04-08T08:16:02;27.43;;;11.70;;
14165;SDS011;7162;52.422;13.754;2023-04-08T08:21:47;23.73;;;10.70;;
14165;SDS011;7162;52.422;13.754;2023-04-08T08:24:16;27.00;;;10.27;;
14165;SDS011;7162;52.422;13.754;2023-04-08T08:26:56;24.40;;;9.57;;
14165;SDS011;7162;52.422;13.754;2023-04-08T08:29:28;29.77;;;11.43;;
14165;SDS011;7162;52.422;13.754;2023-04-08T08:32:01;22.80;;;10.40;;
14165;SDS011;7162;52.422;13.754;2023-04-08T08:34:29;28.80;;;9.97;;
14165;SDS011;7162;52.422;13.754;2023-04-08T08:37:09;27.30;;;11.23;;
14165;SDS011;7162;52.422;13.754;2023-04-08T08:39:53;30.37;;;9.27;;
14165;SDS011;7162;52.422;13.754;2023-04-08T08:42:23;30.60;;;13.27;;
14165;SDS011;7162;52.422;13.754;2023-04-08T08:44:52;31.13;;;12.17;;
14165;SDS011;7162;52.422;13.754;2023-04-08T08:47:25;24.83;;;11.20;;
14165;SDS011;7162;52.422;13.754;2023-04-08T08:49:53;33.57;;;13.40;;
14165;SDS011;7162;52.422;13.754;2023-04-08T08:55:09;21.07;;;10.40;;
14165;SDS011;7162;52.422;13.754;2023-04-08T08:57:37;21.97;;;9.80;;
14165;SDS011;7162;52.422;13.754;2023-04-08T09:00:05;25.07;;;10.00;;
14165;SDS011;7162;52.422;13.754;2023-04-08T09:02:32;25.33;;;9.67;;
14165;SDS011;7162;52.422;13.754;2023-04-08T09:05:00;24.80;;;9.60;;
14165;SDS011;7162;52.422;13.754;2023-04-08T09:07:27;35.83;;;9.07;;
14165;SDS011;7162;52.422;13.754;2023-04-08T09:09:55;22.67;;;10.50;;
14165;SDS011;7162;52.422;13.754;2023-04-08T09:12:27;404.87;;;163.27;;
14165;SDS011;7162;52.422;13.754;2023-04-08T09:15:02;256.17;;;96.43;;
14165;SDS011;7162;52.422;13.754;2023-04-08T09:17:31;168.80;;;60.17;;
14165;SDS011;7162;52.422;13.754;2023-04-08T09:20:06;26.63;;;13.67;;
14165;SDS011;7162;52.422;13.754;2023-04-08T09:22:49;24.37;;;10.50;;
14165;SDS011;7162;52.422;13.754;2023-04-08T09:25:22;28.90;;;11.67;;
14165;SDS011;7162;52.422;13.754;2023-04-08T09:27:51;35.50;;;12.27;;
14165;SDS011;7162;52.422;13.754;2023-04-08T09:30:20;22.10;;;9.97;;
14165;SDS011;7162;52.422;13.754;2023-04-08T09:32:47;22.47;;;10.50;;
14165;SDS011;7162;52.422;13.754;2023-04-08T09:35:15;23.60;;;10.60;;
14165;SDS011;7162;52.422;13.754;2023-04-08T09:37:42;26.80;;;9.57;;
14165;SDS011;7162;52.422;13.754;2023-04-08T09:40:09;21.37;;;9.80;;
14165;SDS011;7162;52.422;13.754;2023-04-08T09:42:38;24.70;;;9.60;;
14165;SDS011;7162;52.422;13.754;2023-04-08T09:45:10;16.00;;;8.33;;
14165;SDS011;7162;52.422;13.754;2023-04-08T09:47:41;20.57;;;9.07;;
14165;SDS011;7162;52.422;13.754;2023-04-08T09:50:12;18.00;;;8.60;;
14165;SDS011;7162;52.422;13.754;2023-04-08T09:52:43;22.73;;;8.73;;
14165;SDS011;7162;52.422;13.754;2023-04-08T09:55:11;26.23;;;12.03;;
14165;SDS011;7162;52.422;13.754;2023-04-08T09:57:39;58.43;;;24.43;;
14165;SDS011;7162;52.422;13.754;2023-04-08T10:00:07;64.53;;;24.57;;
14165;SDS011;7162;52.422;13.754;2023-04-08T10:02:40;37.20;;;16.33;;
14165;SDS011;7162;52.422;13.754;2023-04-08T10:05:09;52.23;;;18.23;;
14165;SDS011;7162;52.422;13.754;2023-04-08T10:07:40;34.60;;;13.13;;
14165;SDS011;7162;52.422;13.754;2023-04-08T10:10:12;41.83;;;15.83;;
14165;SDS011;7162;52.422;13.754;2023-04-08T10:12:42;39.33;;;15.43;;
14165;SDS011;7162;52.422;13.754;2023-04-08T10:15:25;23.03;;;9.13;;
14165;SDS011;7162;52.422;13.754;2023-04-08T10:23:52;18.63;;;6.87;;
14165;SDS011;7162;52.422;13.754;2023-04-08T10:26:30;16.27;;;7.20;;
14165;SDS011;7162;52.422;13.754;2023-04-08T10:31:45;12.57;;;6.40;;
14165;SDS011;7162;52.422;13.754;2023-04-08T10:34:17;13.80;;;6.40;;
14165;SDS011;7162;52.422;13.754;2023-04-08T10:36:44;11.20;;;6.43;;
14165;SDS011;7162;52.422;13.754;2023-04-08T10:39:12;12.30;;;6.43;;
14165;SDS011;7162;52.422;13.754;2023-04-08T10:41:40;15.67;;;7.20;;
14165;SDS011;7162;52.422;13.754;2023-04-08T10:44:14;15.73;;;6.73;;
14165;SDS011;7162;52.422;13.754;2023-04-08T10:46:41;10.57;;;5.63;;
14165;SDS011;7162;52.422;13.754;2023-04-08T10:49:08;12.13;;;5.87;;
14165;SDS011;7162;52.422;13.754;2023-04-08T10:51:37;11.17;;;5.80;;
14165;SDS011;7162;52.422;13.754;2023-04-08T10:54:08;10.50;;;5.90;;
14165;SDS011;7162;52.422;13.754;2023-04-08T10:56:36;11.57;;;5.90;;
14165;SDS011;7162;52.422;13.754;2023-04-08T10:59:09;12.23;;;6.40;;
14165;SDS011;7162;52.422;13.754;2023-04-08T11:01:37;10.73;;;6.37;;
14165;SDS011;7162;52.422;13.754;2023-04-08T11:04:06;19.37;;;6.83;;
14165;SDS011;7162;52.422;13.754;2023-04-08T11:06:35;14.10;;;5.90;;
14165;SDS011;7162;52.422;13.754;2023-04-08T11:09:06;10.90;;;6.20;;
14165;SDS011;7162;52.422;13.754;2023-04-08T11:11:33;11.40;;;6.87;;
14165;SDS011;7162;52.422;13.754;2023-04-08T11:14:01;12.73;;;6.23;;
14165;SDS011;7162;52.422;13.754;2023-04-08T11:16:29;13.00;;;6.97;;
14165;SDS011;7162;52.422;13.754;2023-04-08T11:18:57;12.83;;;6.07;;
14165;SDS011;7162;52.422;13.754;2023-04-08T11:21:25;12.40;;;6.43;;
14165;SDS011;7162;52.422;13.754;2023-04-08T11:23:53;12.50;;;5.87;;
14165;SDS011;7162;52.422;13.754;2023-04-08T11:26:22;10.50;;;5.40;;
14165;SDS011;7162;52.422;13.754;2023-04-08T11:28:51;14.33;;;7.07;;
14165;SDS011;7162;52.422;13.754;2023-04-08T11:31:18;13.67;;;5.70;;
14165;SDS011;7162;52.422;13.754;2023-04-08T11:33:46;12.90;;;6.80;;
14165;SDS011;7162;52.422;13.754;2023-04-08T11:36:16;9.17;;;5.90;;
14165;SDS011;7162;52.422;13.754;2023-04-08T11:38:43;13.97;;;7.10;;
14165;SDS011;7162;52.422;13.754;2023-04-08T11:41:11;21.77;;;8.00;;
14165;SDS011;7162;52.422;13.754;2023-04-08T11:43:50;12.17;;;5.57;;
14165;SDS011;7162;52.422;13.754;2023-04-08T11:46:17;12.67;;;5.77;;
14165;SDS011;7162;52.422;13.754;2023-04-08T11:51:27;10.30;;;5.90;;
14165;SDS011;7162;52.422;13.754;2023-04-08T11:53:54;9.83;;;5.30;;
14165;SDS011;7162;52.422;13.754;2023-04-08T11:56:22;8.27;;;4.83;;
14165;SDS011;7162;52.422;13.754;2023-04-08T11:58:50;8.90;;;4.97;;
14165;SDS011;7162;52.422;13.754;2023-04-08T12:01:17;9.10;;;4.87;;
14165;SDS011;7162;52.422;13.754;2023-04-08T12:03:54;13.10;;;5.53;;
14165;SDS011;7162;52.422;13.754;2023-04-08T12:06:21;8.03;;;5.10;;
14165;SDS011;7162;52.422;13.754;2023-04-08T12:08:51;11.27;;;5.67;;
14165;SDS011;7162;52.422;13.754;2023-04-08T12:11:18;10.70;;;5.37;;
14165;SDS011;7162;52.422;13.754;2023-04-08T12:13:45;10.40;;;5.67;;
14165;SDS011;7162;52.422;13.754;2023-04-08T12:16:16;7.87;;;5.23;;
14165;SDS011;7162;52.422;13.754;2023-04-08T12:18:43;8.10;;;5.23;;
14165;SDS011;7162;52.422;13.754;2023-04-08T12:24:05;11.40;;;5.30;;
14165;SDS011;7162;52.422;13.754;2023-04-08T12:26:32;8.47;;;4.80;;
14165;SDS011;7162;52.422;13.754;2023-04-08T12:28:59;11.57;;;5.20;;
14165;SDS011;7162;52.422;13.754;2023-04-08T12:31:28;9.50;;;5.07;;
14165;SDS011;7162;52.422;13.754;2023-04-08T12:33:55;8.50;;;4.80;;
14165;SDS011;7162;52.422;13.754;2023-04-08T12:36:22;7.00;;;4.53;;
14165;SDS011;7162;52.422;13.754;2023-04-08T12:38:51;15.20;;;6.30;;
14165;SDS011;7162;52.422;13.754;2023-04-08T12:44:00;10.47;;;6.10;;
14165;SDS011;7162;52.422;13.754;2023-04-08T12:47:05;8.50;;;4.67;;
14165;SDS011;7162;52.422;13.754;2023-04-08T12:49:47;7.83;;;4.83;;
14165;SDS011;7162;52.422;13.754;2023-04-08T12:55:05;10.80;;;4.90;;
14165;SDS011;7162;52.422;13.754;2023-04-08T13:08:41;12.17;;;5.77;;
14165;SDS011;7162;52.422;13.754;2023-04-08T13:11:09;7.57;;;4.53;;
14165;SDS011;7162;52.422;13.754;2023-04-08T13:13:36;9.23;;;4.87;;
14165;SDS011;7162;52.422;13.754;2023-04-08T13:16:03;7.67;;;4.30;;
14165;SDS011;7162;52.422;13.754;2023-04-08T13:18:30;6.43;;;4.20;;
14165;SDS011;7162;52.422;13.754;2023-04-08T13:20:57;10.90;;;5.30;;
14165;SDS011;7162;52.422;13.754;2023-04-08T13:23:24;11.13;;;5.97;;
14165;SDS011;7162;52.422;13.754;2023-04-08T13:25:52;10.37;;;5.80;;
14165;SDS011;7162;52.422;13.754;2023-04-08T13:28:19;12.97;;;7.00;;
14165;SDS011;7162;52.422;13.754;2023-04-08T13:30:46;7.50;;;4.70;;
14165;SDS011;7162;52.422;13.754;2023-04-08T13:33:13;11.93;;;6.07;;
14165;SDS011;7162;52.422;13.754;2023-04-08T13:35:41;16.43;;;8.80;;
14165;SDS011;7162;52.422;13.754;2023-04-08T13:38:08;10.70;;;5.27;;
14165;SDS011;7162;52.422;13.754;2023-04-08T13:40:35;9.30;;;5.30;;
14165;SDS011;7162;52.422;13.754;2023-04-08T13:43:03;8.97;;;4.90;;
14165;SDS011;7162;52.422;13.754;2023-04-08T13:45:30;15.40;;;7.10;;
14165;SDS011;7162;52.422;13.754;2023-04-08T13:47:57;9.50;;;5.40;;
14165;SDS011;7162;52.422;13.754;2023-04-08T13:50:24;9.47;;;5.67;;
14165;SDS011;7162;52.422;13.754;2023-04-08T13:52:51;10.40;;;5.40;;
14165;SDS011;7162;52.422;13.754;2023-04-08T13:55:18;7.77;;;4.43;;
14165;SDS011;7162;52.422;13.754;2023-04-08T13:57:46;10.57;;;5.03;;
14165;SDS011;7162;52.422;13.754;2023-04-08T14:00:14;8.23;;;4.80;;
14165;SDS011;7162;52.422;13.754;2023-04-08T14:02:41;7.83;;;4.37;;
14165;SDS011;7162;52.422;13.754;2023-04-08T14:05:08;7.10;;;4.83;;
14165;SDS011;7162;52.422;13.754;2023-04-08T14:07:35;9.30;;;5.83;;
14165;SDS011;7162;52.422;13.754;2023-04-08T14:10:03;10.70;;;6.03;;
14165;SDS011;7162;52.422;13.754;2023-04-08T14:12:30;8.60;;;5.10;;
14165;SDS011;7162;52.422;13.754;2023-04-08T14:14:57;11.00;;;5.60;;
14165;SDS011;7162;52.422;13.754;2023-04-08T14:17:25;10.23;;;5.30;;
14165;SDS011;7162;52.422;13.754;2023-04-08T14:19:52;17.90;;;8.30;;
14165;SDS011;7162;52.422;13.754;2023-04-08T14:22:19;13.20;;;6.60;;
14165;SDS011;7162;52.422;13.754;2023-04-08T14:24:46;16.60;;;7.67;;
14165;SDS011;7162;52.422;13.754;2023-04-08T14:27:13;16.70;;;7.73;;
14165;SDS011;7162;52.422;13.754;2023-04-08T14:29:40;10.57;;;5.27;;
14165;SDS011;7162;52.422;13.754;2023-04-08T14:32:07;9.33;;;5.10;;
14165;SDS011;7162;52.422;13.754;2023-04-08T14:34:36;8.93;;;5.13;;
14165;SDS011;7162;52.422;13.754;2023-04-08T14:37:03;11.80;;;4.93;;
14165;SDS011;7162;52.422;13.754;2023-04-08T14:39:30;17.00;;;7.30;;
14165;SDS011;7162;52.422;13.754;2023-04-08T14:41:57;8.43;;;5.20;;
14165;SDS011;7162;52.422;13.754;2023-04-08T14:44:24;23.00;;;4.87;;
14165;SDS011;7162;52.422;13.754;2023-04-08T14:46:51;11.17;;;5.80;;
14165;SDS011;7162;52.422;13.754;2023-04-08T14:49:18;9.80;;;5.10;;
14165;SDS011;7162;52.422;13.754;2023-04-08T14:51:46;7.67;;;4.83;;
14165;SDS011;7162;52.422;13.754;2023-04-08T14:54:13;11.13;;;5.50;;
14165;SDS011;7162;52.422;13.754;2023-04-08T14:56:42;9.27;;;5.10;;
14165;SDS011;7162;52.422;13.754;2023-04-08T14:59:10;11.50;;;5.67;;
14165;SDS011;7162;52.422;13.754;2023-04-08T15:01:37;12.03;;;6.70;;
14165;SDS011;7162;52.422;13.754;2023-04-08T15:04:05;7.63;;;4.93;;
14165;SDS011;7162;52.422;13.754;2023-04-08T15:06:33;9.07;;;5.70;;
14165;SDS011;7162;52.422;13.754;2023-04-08T15:09:01;10.90;;;5.57;;
14165;SDS011;7162;52.422;13.754;2023-04-08T15:11:28;10.60;;;5.80;;
14165;SDS011;7162;52.422;13.754;2023-04-08T15:13:55;11.30;;;6.00;;
14165;SDS011;7162;52.422;13.754;2023-04-08T15:16:22;11.70;;;5.93;;
14165;SDS011;7162;52.422;13.754;2023-04-08T15:18:49;11.57;;;5.70;;
14165;SDS011;7162;52.422;13.754;2023-04-08T15:21:19;11.63;;;6.00;;
14165;SDS011;7162;52.422;13.754;2023-04-08T15:23:46;13.10;;;6.07;;
14165;SDS011;7162;52.422;13.754;2023-04-08T15:26:15;10.03;;;5.37;;
14165;SDS011;7162;52.422;13.754;2023-04-08T15:28:42;9.93;;;5.43;;
14165;SDS011;7162;52.422;13.754;2023-04-08T15:31:09;12.53;;;6.30;;
14165;SDS011;7162;52.422;13.754;2023-04-08T15:33:37;11.67;;;6.20;;
14165;SDS011;7162;52.422;13.754;2023-04-08T15:36:09;13.33;;;7.37;;
14165;SDS011;7162;52.422;13.754;2023-04-08T15:38:36;9.13;;;5.93;;
14165;SDS011;7162;52.422;13.754;2023-04-08T15:41:03;9.23;;;5.73;;
14165;SDS011;7162;52.422;13.754;2023-04-08T15:43:32;10.20;;;5.10;;
14165;SDS011;7162;52.422;13.754;2023-04-08T15:45:59;11.93;;;6.60;;
14165;SDS011;7162;52.422;13.754;2023-04-08T15:48:27;21.30;;;6.57;;
14165;SDS011;7162;52.422;13.754;2023-04-08T15:50:54;11.60;;;6.40;;
14165;SDS011;7162;52.422;13.754;2023-04-08T15:53:21;11.10;;;6.20;;
14165;SDS011;7162;52.422;13.754;2023-04-08T15:55:48;12.70;;;7.50;;
14165;SDS011;7162;52.422;13.754;2023-04-08T15:58:15;11.10;;;6.23;;
14165;SDS011;7162;52.422;13.754;2023-04-08T16:00:49;14.03;;;7.53;;
14165;SDS011;7162;52.422;13.754;2023-04-08T16:03:16;16.23;;;8.10;;
14165;SDS011;7162;52.422;13.754;2023-04-08T16:08:43;14.33;;;7.87;;
14165;SDS011;7162;52.422;13.754;2023-04-08T16:11:14;14.77;;;8.40;;
14165;SDS011;7162;52.422;13.754;2023-04-08T16:13:41;15.27;;;8.67;;
14165;SDS011;7162;52.422;13.754;2023-04-08T16:16:10;17.93;;;9.77;;
14165;SDS011;7162;52.422;13.754;2023-04-08T16:18:37;21.90;;;9.93;;
14165;SDS011;7162;52.422;13.754;2023-04-08T16:21:08;22.67;;;11.23;;
14165;SDS011;7162;52.422;13.754;2023-04-08T16:23:37;26.03;;;11.20;;
14165;SDS011;7162;52.422;13.754;2023-04-08T16:26:04;17.93;;;10.50;;
14165;SDS011;7162;52.422;13.754;2023-04-08T16:28:33;16.53;;;9.93;;
14165;SDS011;7162;52.422;13.754;2023-04-08T16:31:00;19.33;;;10.67;;
14165;SDS011;7162;52.422;13.754;2023-04-08T16:33:30;19.23;;;10.63;;
14165;SDS011;7162;52.422;13.754;2023-04-08T16:35:57;20.17;;;10.33;;
14165;SDS011;7162;52.422;13.754;2023-04-08T16:38:25;18.40;;;10.53;;
14165;SDS011;7162;52.422;13.754;2023-04-08T16:40:55;15.60;;;9.13;;
14165;SDS011;7162;52.422;13.754;2023-04-08T16:43:23;15.30;;;9.37;;
14165;SDS011;7162;52.422;13.754;2023-04-08T16:45:51;18.90;;;10.90;;
14165;SDS011;7162;52.422;13.754;2023-04-08T16:48:18;20.27;;;10.13;;